Ovilla, Texas
Current Conditions -  °F | °C
As of 9:15 PM on Monday 26 Jan 2015 (Local Time) from KJWY Reporting Station
Clear Clear  
Wind Chill: 56°   Ceiling: Unl
Heat Index: 56°   Visibility: 10mi
Dew Point: 40°   Wind: 5mph
Humidity: 53%   Direction: 240°WSW
Pressure: 30.1"   Gusts: NA
Location:  32.515°N, 96.8153°W
Report Text: KJWY 270315Z AUTO 24004KT 10SM CLR 14/04 A3010 RMK AO2 T01360043
Loading
Personal Weather Stations






























Interactive Weather Map New forecast layout! Learn more

10-Day Weather Forecast

Advertisements
Track Severe Weather on mobile